Chatom, Alabama
Current Conditions -  °F | °C
As of 2:56 PM on Saturday 20 Dec 2014 (Local Time) from KMOB Reporting Station
Overcast Overcast  
Wind Chill: 45°   Ceiling: 600
Heat Index: 49°   Visibility: 10mi
Dew Point: 47°   Wind: 10mph
Humidity: 93%   Direction: 10°N
Pressure: 30.11"   Gusts: NA
Location:  31.47°N, 88.25°W
Report Text: KMOB 202056Z 01009KT 10SM OVC006 09/08 A3011 RMK AO2 SLP195 T00940083 56010 $
Loading
Personal Weather Stations






























Interactive Weather Map New forecast layout! Learn more

10-Day Weather Forecast

Advertisements
Track Severe Weather on mobile